sensor_id;sensor_type;location;lat;lon;timestamp;P1;durP1;ratioP1;P2;durP2;ratioP2
34302;SDS011;20785;50.020;19.916;2023-03-23T00:03:44;13.50;;;8.60;;
34302;SDS011;20785;50.020;19.916;2023-03-23T00:09:48;15.70;;;8.30;;
34302;SDS011;20785;50.020;19.916;2023-03-23T00:15:54;15.60;;;8.50;;
34302;SDS011;20785;50.020;19.916;2023-03-23T00:21:57;14.40;;;7.80;;
34302;SDS011;20785;50.020;19.916;2023-03-23T00:28:01;12.70;;;8.00;;
34302;SDS011;20785;50.020;19.916;2023-03-23T00:34:04;11.40;;;7.00;;
34302;SDS011;20785;50.020;19.916;2023-03-23T00:40:05;12.50;;;7.80;;
34302;SDS011;20785;50.020;19.916;2023-03-23T00:46:11;11.00;;;7.10;;
34302;SDS011;20785;50.020;19.916;2023-03-23T00:52:14;11.20;;;7.20;;
34302;SDS011;20785;50.020;19.916;2023-03-23T00:58:15;11.30;;;7.00;;
34302;SDS011;20785;50.020;19.916;2023-03-23T01:04:16;10.70;;;6.60;;
34302;SDS011;20785;50.020;19.916;2023-03-23T01:10:18;12.10;;;6.80;;
34302;SDS011;20785;50.020;19.916;2023-03-23T01:16:19;12.60;;;7.50;;
34302;SDS011;20785;50.020;19.916;2023-03-23T01:22:21;11.90;;;6.70;;
34302;SDS011;20785;50.020;19.916;2023-03-23T01:28:22;11.10;;;6.50;;
34302;SDS011;20785;50.020;19.916;2023-03-23T01:34:23;11.50;;;6.80;;
34302;SDS011;20785;50.020;19.916;2023-03-23T01:40:26;10.20;;;6.30;;
34302;SDS011;20785;50.020;19.916;2023-03-23T01:46:28;12.60;;;7.10;;
34302;SDS011;20785;50.020;19.916;2023-03-23T01:52:31;11.10;;;6.50;;
34302;SDS011;20785;50.020;19.916;2023-03-23T01:58:37;10.90;;;6.90;;
34302;SDS011;20785;50.020;19.916;2023-03-23T02:04:39;11.30;;;6.30;;
34302;SDS011;20785;50.020;19.916;2023-03-23T02:10:42;9.60;;;6.00;;
34302;SDS011;20785;50.020;19.916;2023-03-23T02:29:18;9.00;;;5.40;;
34302;SDS011;20785;50.020;19.916;2023-03-23T02:35:37;9.90;;;5.40;;
34302;SDS011;20785;50.020;19.916;2023-03-23T02:41:51;11.70;;;5.90;;
34302;SDS011;20785;50.020;19.916;2023-03-23T02:47:56;8.90;;;5.60;;
34302;SDS011;20785;50.020;19.916;2023-03-23T02:53:57;11.20;;;5.40;;
34302;SDS011;20785;50.020;19.916;2023-03-23T02:59:59;10.70;;;6.10;;
34302;SDS011;20785;50.020;19.916;2023-03-23T03:06:35;9.50;;;5.70;;
34302;SDS011;20785;50.020;19.916;2023-03-23T03:12:44;8.60;;;5.10;;
34302;SDS011;20785;50.020;19.916;2023-03-23T03:18:54;7.70;;;4.90;;
34302;SDS011;20785;50.020;19.916;2023-03-23T03:24:58;8.50;;;5.40;;
34302;SDS011;20785;50.020;19.916;2023-03-23T03:31:01;11.00;;;5.40;;
34302;SDS011;20785;50.020;19.916;2023-03-23T03:37:04;9.00;;;5.80;;
34302;SDS011;20785;50.020;19.916;2023-03-23T03:43:07;8.00;;;5.10;;
34302;SDS011;20785;50.020;19.916;2023-03-23T03:49:09;9.30;;;5.50;;
34302;SDS011;20785;50.020;19.916;2023-03-23T03:55:13;9.50;;;5.90;;
34302;SDS011;20785;50.020;19.916;2023-03-23T04:01:19;8.70;;;5.60;;
34302;SDS011;20785;50.020;19.916;2023-03-23T04:07:25;10.80;;;5.80;;
34302;SDS011;20785;50.020;19.916;2023-03-23T04:13:27;12.10;;;6.30;;
34302;SDS011;20785;50.020;19.916;2023-03-23T04:19:46;10.80;;;5.80;;
34302;SDS011;20785;50.020;19.916;2023-03-23T04:25:49;12.20;;;6.50;;
34302;SDS011;20785;50.020;19.916;2023-03-23T04:31:52;11.50;;;6.70;;
34302;SDS011;20785;50.020;19.916;2023-03-23T04:38:01;12.10;;;6.80;;
34302;SDS011;20785;50.020;19.916;2023-03-23T04:44:02;12.20;;;7.20;;
34302;SDS011;20785;50.020;19.916;2023-03-23T04:50:10;13.10;;;6.50;;
34302;SDS011;20785;50.020;19.916;2023-03-23T04:56:15;11.60;;;7.20;;
34302;SDS011;20785;50.020;19.916;2023-03-23T05:02:18;11.10;;;6.60;;
34302;SDS011;20785;50.020;19.916;2023-03-23T05:08:22;15.60;;;8.50;;
34302;SDS011;20785;50.020;19.916;2023-03-23T05:14:27;15.00;;;9.00;;
34302;SDS011;20785;50.020;19.916;2023-03-23T05:20:41;12.20;;;7.20;;
34302;SDS011;20785;50.020;19.916;2023-03-23T05:26:49;13.30;;;8.30;;
34302;SDS011;20785;50.020;19.916;2023-03-23T05:32:57;16.90;;;9.60;;
34302;SDS011;20785;50.020;19.916;2023-03-23T05:39:24;14.10;;;8.60;;
34302;SDS011;20785;50.020;19.916;2023-03-23T05:45:35;15.00;;;8.20;;
34302;SDS011;20785;50.020;19.916;2023-03-23T05:51:37;20.10;;;11.50;;
34302;SDS011;20785;50.020;19.916;2023-03-23T05:57:39;20.10;;;11.50;;
34302;SDS011;20785;50.020;19.916;2023-03-23T06:03:57;19.30;;;11.50;;
34302;SDS011;20785;50.020;19.916;2023-03-23T06:10:08;20.90;;;12.20;;
34302;SDS011;20785;50.020;19.916;2023-03-23T06:16:11;17.60;;;11.60;;
34302;SDS011;20785;50.020;19.916;2023-03-23T06:22:22;15.60;;;10.20;;
34302;SDS011;20785;50.020;19.916;2023-03-23T06:28:44;17.30;;;11.60;;
34302;SDS011;20785;50.020;19.916;2023-03-23T06:34:46;16.20;;;10.60;;
34302;SDS011;20785;50.020;19.916;2023-03-23T06:41:23;17.00;;;9.90;;
34302;SDS011;20785;50.020;19.916;2023-03-23T06:47:27;15.10;;;8.80;;
34302;SDS011;20785;50.020;19.916;2023-03-23T06:53:31;9.00;;;5.90;;
34302;SDS011;20785;50.020;19.916;2023-03-23T06:59:32;8.70;;;4.40;;
34302;SDS011;20785;50.020;19.916;2023-03-23T07:05:35;4.90;;;2.90;;
34302;SDS011;20785;50.020;19.916;2023-03-23T07:11:37;5.60;;;3.00;;
34302;SDS011;20785;50.020;19.916;2023-03-23T07:17:44;3.90;;;3.10;;
34302;SDS011;20785;50.020;19.916;2023-03-23T07:24:12;4.90;;;3.00;;
34302;SDS011;20785;50.020;19.916;2023-03-23T07:36:36;6.60;;;3.10;;
34302;SDS011;20785;50.020;19.916;2023-03-23T07:42:43;5.00;;;2.80;;
34302;SDS011;20785;50.020;19.916;2023-03-23T07:48:45;4.30;;;2.90;;
34302;SDS011;20785;50.020;19.916;2023-03-23T07:54:47;5.30;;;2.90;;
34302;SDS011;20785;50.020;19.916;2023-03-23T08:01:04;3.40;;;2.80;;
34302;SDS011;20785;50.020;19.916;2023-03-23T08:07:07;4.60;;;2.90;;
34302;SDS011;20785;50.020;19.916;2023-03-23T08:13:19;6.10;;;3.20;;
34302;SDS011;20785;50.020;19.916;2023-03-23T08:19:41;6.70;;;3.70;;
34302;SDS011;20785;50.020;19.916;2023-03-23T08:26:03;6.50;;;3.10;;
34302;SDS011;20785;50.020;19.916;2023-03-23T08:32:27;4.70;;;3.00;;
34302;SDS011;20785;50.020;19.916;2023-03-23T08:38:58;4.50;;;2.60;;
34302;SDS011;20785;50.020;19.916;2023-03-23T08:45:22;7.10;;;2.80;;
34302;SDS011;20785;50.020;19.916;2023-03-23T08:51:48;4.40;;;2.60;;
34302;SDS011;20785;50.020;19.916;2023-03-23T08:58:00;5.50;;;3.00;;
34302;SDS011;20785;50.020;19.916;2023-03-23T09:04:22;4.40;;;2.60;;
34302;SDS011;20785;50.020;19.916;2023-03-23T09:10:46;5.20;;;2.50;;
34302;SDS011;20785;50.020;19.916;2023-03-23T09:16:47;5.00;;;2.80;;
34302;SDS011;20785;50.020;19.916;2023-03-23T09:22:49;3.50;;;2.60;;
34302;SDS011;20785;50.020;19.916;2023-03-23T09:28:52;5.80;;;2.70;;
34302;SDS011;20785;50.020;19.916;2023-03-23T09:34:53;3.50;;;2.00;;
34302;SDS011;20785;50.020;19.916;2023-03-23T09:41:01;4.00;;;2.40;;
34302;SDS011;20785;50.020;19.916;2023-03-23T09:53:20;4.40;;;2.60;;
34302;SDS011;20785;50.020;19.916;2023-03-23T10:05:45;4.90;;;2.60;;
34302;SDS011;20785;50.020;19.916;2023-03-23T10:18:02;2.70;;;2.00;;
34302;SDS011;20785;50.020;19.916;2023-03-23T10:24:23;2.70;;;2.10;;
34302;SDS011;20785;50.020;19.916;2023-03-23T10:30:37;3.80;;;2.30;;
34302;SDS011;20785;50.020;19.916;2023-03-23T10:36:55;4.30;;;2.20;;
34302;SDS011;20785;50.020;19.916;2023-03-23T10:43:00;4.50;;;2.40;;
34302;SDS011;20785;50.020;19.916;2023-03-23T10:49:04;3.50;;;2.10;;
34302;SDS011;20785;50.020;19.916;2023-03-23T10:55:12;3.80;;;2.30;;
34302;SDS011;20785;50.020;19.916;2023-03-23T11:01:31;4.00;;;2.00;;
34302;SDS011;20785;50.020;19.916;2023-03-23T11:07:34;3.30;;;2.00;;
34302;SDS011;20785;50.020;19.916;2023-03-23T11:13:39;3.20;;;2.00;;
34302;SDS011;20785;50.020;19.916;2023-03-23T11:19:45;4.80;;;1.80;;
34302;SDS011;20785;50.020;19.916;2023-03-23T11:25:50;2.80;;;1.70;;
34302;SDS011;20785;50.020;19.916;2023-03-23T11:32:12;3.80;;;1.90;;
34302;SDS011;20785;50.020;19.916;2023-03-23T11:38:22;3.90;;;1.90;;
34302;SDS011;20785;50.020;19.916;2023-03-23T11:44:31;3.70;;;1.80;;
34302;SDS011;20785;50.020;19.916;2023-03-23T11:50:59;3.20;;;2.00;;
34302;SDS011;20785;50.020;19.916;2023-03-23T11:57:18;5.00;;;2.00;;
34302;SDS011;20785;50.020;19.916;2023-03-23T12:03:24;3.80;;;2.10;;
34302;SDS011;20785;50.020;19.916;2023-03-23T12:09:50;3.80;;;2.30;;
34302;SDS011;20785;50.020;19.916;2023-03-23T12:15:59;4.20;;;2.10;;
34302;SDS011;20785;50.020;19.916;2023-03-23T12:22:11;3.10;;;1.90;;
34302;SDS011;20785;50.020;19.916;2023-03-23T12:40:57;4.10;;;2.20;;
34302;SDS011;20785;50.020;19.916;2023-03-23T12:47:23;3.80;;;1.90;;
34302;SDS011;20785;50.020;19.916;2023-03-23T12:53:32;3.30;;;2.00;;
34302;SDS011;20785;50.020;19.916;2023-03-23T12:59:53;3.70;;;2.00;;
34302;SDS011;20785;50.020;19.916;2023-03-23T13:06:02;3.40;;;2.50;;
34302;SDS011;20785;50.020;19.916;2023-03-23T13:12:07;3.50;;;2.20;;
34302;SDS011;20785;50.020;19.916;2023-03-23T13:18:13;2.90;;;2.00;;
34302;SDS011;20785;50.020;19.916;2023-03-23T13:24:29;3.30;;;2.10;;
34302;SDS011;20785;50.020;19.916;2023-03-23T13:30:33;5.30;;;2.50;;
34302;SDS011;20785;50.020;19.916;2023-03-23T13:36:38;7.30;;;2.70;;
34302;SDS011;20785;50.020;19.916;2023-03-23T13:42:51;4.30;;;2.30;;
34302;SDS011;20785;50.020;19.916;2023-03-23T14:01:18;2.90;;;1.40;;
34302;SDS011;20785;50.020;19.916;2023-03-23T14:07:20;2.40;;;1.60;;
34302;SDS011;20785;50.020;19.916;2023-03-23T14:13:44;4.00;;;1.60;;
34302;SDS011;20785;50.020;19.916;2023-03-23T14:19:49;4.10;;;1.30;;
34302;SDS011;20785;50.020;19.916;2023-03-23T14:25:55;2.40;;;1.60;;
34302;SDS011;20785;50.020;19.916;2023-03-23T14:32:14;2.90;;;1.50;;
34302;SDS011;20785;50.020;19.916;2023-03-23T14:38:21;3.10;;;1.70;;
34302;SDS011;20785;50.020;19.916;2023-03-23T14:44:32;3.70;;;1.50;;
34302;SDS011;20785;50.020;19.916;2023-03-23T14:56:36;3.00;;;1.60;;
34302;SDS011;20785;50.020;19.916;2023-03-23T15:02:40;5.00;;;2.20;;
34302;SDS011;20785;50.020;19.916;2023-03-23T15:08:42;6.00;;;2.60;;
34302;SDS011;20785;50.020;19.916;2023-03-23T15:14:45;4.80;;;2.70;;
34302;SDS011;20785;50.020;19.916;2023-03-23T15:20:49;4.60;;;2.60;;
34302;SDS011;20785;50.020;19.916;2023-03-23T15:26:50;4.00;;;2.80;;
34302;SDS011;20785;50.020;19.916;2023-03-23T15:32:54;5.50;;;2.50;;
34302;SDS011;20785;50.020;19.916;2023-03-23T15:39:00;5.70;;;2.80;;
34302;SDS011;20785;50.020;19.916;2023-03-23T15:51:11;3.70;;;2.30;;
34302;SDS011;20785;50.020;19.916;2023-03-23T15:57:14;5.10;;;2.40;;
34302;SDS011;20785;50.020;19.916;2023-03-23T16:03:58;5.90;;;2.60;;
34302;SDS011;20785;50.020;19.916;2023-03-23T16:09:50;7.50;;;3.00;;
34302;SDS011;20785;50.020;19.916;2023-03-23T16:15:52;5.50;;;2.80;;
34302;SDS011;20785;50.020;19.916;2023-03-23T16:21:54;8.30;;;2.60;;
34302;SDS011;20785;50.020;19.916;2023-03-23T16:27:55;7.50;;;2.80;;
34302;SDS011;20785;50.020;19.916;2023-03-23T16:33:57;7.50;;;2.90;;
34302;SDS011;20785;50.020;19.916;2023-03-23T16:39:58;6.90;;;2.80;;
34302;SDS011;20785;50.020;19.916;2023-03-23T16:46:01;6.50;;;3.10;;
34302;SDS011;20785;50.020;19.916;2023-03-23T16:52:02;7.30;;;3.10;;
34302;SDS011;20785;50.020;19.916;2023-03-23T16:58:04;5.80;;;3.00;;
34302;SDS011;20785;50.020;19.916;2023-03-23T17:04:18;8.10;;;3.30;;
34302;SDS011;20785;50.020;19.916;2023-03-23T17:10:19;7.20;;;3.10;;
34302;SDS011;20785;50.020;19.916;2023-03-23T17:16:22;7.30;;;3.50;;
34302;SDS011;20785;50.020;19.916;2023-03-23T17:22:24;7.20;;;3.60;;
34302;SDS011;20785;50.020;19.916;2023-03-23T17:28:26;9.00;;;3.20;;
34302;SDS011;20785;50.020;19.916;2023-03-23T17:34:27;5.80;;;3.10;;
34302;SDS011;20785;50.020;19.916;2023-03-23T17:40:29;6.30;;;3.10;;
34302;SDS011;20785;50.020;19.916;2023-03-23T17:46:31;8.70;;;4.00;;
34302;SDS011;20785;50.020;19.916;2023-03-23T17:52:33;6.40;;;3.60;;
34302;SDS011;20785;50.020;19.916;2023-03-23T17:58:35;11.80;;;5.10;;
34302;SDS011;20785;50.020;19.916;2023-03-23T18:04:36;10.70;;;5.30;;
34302;SDS011;20785;50.020;19.916;2023-03-23T18:10:39;11.00;;;5.40;;
34302;SDS011;20785;50.020;19.916;2023-03-23T18:16:41;10.00;;;4.80;;
34302;SDS011;20785;50.020;19.916;2023-03-23T18:22:43;12.50;;;4.70;;
34302;SDS011;20785;50.020;19.916;2023-03-23T18:28:45;10.40;;;5.60;;
34302;SDS011;20785;50.020;19.916;2023-03-23T18:34:48;12.30;;;5.80;;
34302;SDS011;20785;50.020;19.916;2023-03-23T18:40:50;10.70;;;5.80;;
34302;SDS011;20785;50.020;19.916;2023-03-23T18:46:52;8.00;;;4.40;;
34302;SDS011;20785;50.020;19.916;2023-03-23T18:52:53;11.70;;;4.90;;
34302;SDS011;20785;50.020;19.916;2023-03-23T18:58:56;8.80;;;4.60;;
34302;SDS011;20785;50.020;19.916;2023-03-23T19:04:57;9.60;;;5.10;;
34302;SDS011;20785;50.020;19.916;2023-03-23T19:11:01;11.10;;;4.90;;
34302;SDS011;20785;50.020;19.916;2023-03-23T19:17:04;13.10;;;5.70;;
34302;SDS011;20785;50.020;19.916;2023-03-23T19:23:07;12.80;;;6.10;;
34302;SDS011;20785;50.020;19.916;2023-03-23T19:29:11;15.70;;;6.80;;
34302;SDS011;20785;50.020;19.916;2023-03-23T19:35:18;14.10;;;6.60;;
34302;SDS011;20785;50.020;19.916;2023-03-23T19:41:20;13.20;;;7.20;;
34302;SDS011;20785;50.020;19.916;2023-03-23T19:47:22;14.50;;;7.50;;
34302;SDS011;20785;50.020;19.916;2023-03-23T19:53:23;13.90;;;6.70;;
34302;SDS011;20785;50.020;19.916;2023-03-23T19:59:27;13.80;;;7.00;;
34302;SDS011;20785;50.020;19.916;2023-03-23T20:05:29;11.40;;;7.30;;
34302;SDS011;20785;50.020;19.916;2023-03-23T20:11:31;13.10;;;7.50;;
34302;SDS011;20785;50.020;19.916;2023-03-23T20:17:32;11.20;;;6.50;;
34302;SDS011;20785;50.020;19.916;2023-03-23T20:23:34;11.50;;;6.70;;
34302;SDS011;20785;50.020;19.916;2023-03-23T20:29:37;12.60;;;6.30;;
34302;SDS011;20785;50.020;19.916;2023-03-23T20:35:39;10.50;;;5.70;;
34302;SDS011;20785;50.020;19.916;2023-03-23T20:41:40;9.60;;;5.80;;
34302;SDS011;20785;50.020;19.916;2023-03-23T20:47:43;10.60;;;6.20;;
34302;SDS011;20785;50.020;19.916;2023-03-23T20:53:45;9.10;;;5.60;;
34302;SDS011;20785;50.020;19.916;2023-03-23T20:59:51;9.20;;;5.30;;
34302;SDS011;20785;50.020;19.916;2023-03-23T21:05:53;10.40;;;5.40;;
34302;SDS011;20785;50.020;19.916;2023-03-23T21:11:55;8.70;;;5.20;;
34302;SDS011;20785;50.020;19.916;2023-03-23T21:17:58;9.80;;;5.00;;
34302;SDS011;20785;50.020;19.916;2023-03-23T21:24:00;7.60;;;5.00;;
34302;SDS011;20785;50.020;19.916;2023-03-23T21:30:02;8.30;;;4.50;;
34302;SDS011;20785;50.020;19.916;2023-03-23T21:36:05;10.30;;;5.30;;
34302;SDS011;20785;50.020;19.916;2023-03-23T21:42:07;8.60;;;4.50;;
34302;SDS011;20785;50.020;19.916;2023-03-23T21:48:10;8.80;;;5.20;;
34302;SDS011;20785;50.020;19.916;2023-03-23T21:54:12;8.00;;;4.20;;
34302;SDS011;20785;50.020;19.916;2023-03-23T22:00:14;9.40;;;4.60;;
34302;SDS011;20785;50.020;19.916;2023-03-23T22:06:18;6.50;;;3.90;;
34302;SDS011;20785;50.020;19.916;2023-03-23T22:12:25;8.90;;;4.40;;
34302;SDS011;20785;50.020;19.916;2023-03-23T22:18:27;9.10;;;4.20;;
34302;SDS011;20785;50.020;19.916;2023-03-23T22:24:29;7.20;;;4.10;;
34302;SDS011;20785;50.020;19.916;2023-03-23T22:30:31;6.20;;;4.00;;
34302;SDS011;20785;50.020;19.916;2023-03-23T22:36:33;8.70;;;4.40;;
34302;SDS011;20785;50.020;19.916;2023-03-23T22:42:35;7.80;;;4.00;;
34302;SDS011;20785;50.020;19.916;2023-03-23T22:48:36;8.50;;;4.20;;
34302;SDS011;20785;50.020;19.916;2023-03-23T22:54:38;6.90;;;3.70;;
34302;SDS011;20785;50.020;19.916;2023-03-23T23:00:43;7.50;;;4.30;;
34302;SDS011;20785;50.020;19.916;2023-03-23T23:06:47;9.00;;;4.30;;
34302;SDS011;20785;50.020;19.916;2023-03-23T23:12:49;8.90;;;4.70;;
34302;SDS011;20785;50.020;19.916;2023-03-23T23:18:50;9.00;;;4.40;;
34302;SDS011;20785;50.020;19.916;2023-03-23T23:24:52;7.00;;;4.50;;
34302;SDS011;20785;50.020;19.916;2023-03-23T23:30:54;5.70;;;3.80;;
34302;SDS011;20785;50.020;19.916;2023-03-23T23:36:56;6.80;;;4.50;;
34302;SDS011;20785;50.020;19.916;2023-03-23T23:43:00;6.50;;;4.00;;
34302;SDS011;20785;50.020;19.916;2023-03-23T23:49:03;7.40;;;3.80;;
34302;SDS011;20785;50.020;19.916;2023-03-23T23:55:05;10.10;;;4.50;;
